sensor_id;sensor_type;location;lat;lon;timestamp;P1;durP1;ratioP1;P2;durP2;ratioP2
70951;SDS011;69214;55.880;37.542;2023-08-24T00:00:51;6.22;;;2.42;;
70951;SDS011;69214;55.880;37.542;2023-08-24T00:03:17;5.13;;;1.80;;
70951;SDS011;69214;55.880;37.542;2023-08-24T00:05:43;6.80;;;2.00;;
70951;SDS011;69214;55.880;37.542;2023-08-24T00:08:09;5.47;;;1.80;;
70951;SDS011;69214;55.880;37.542;2023-08-24T00:10:35;5.15;;;1.77;;
70951;SDS011;69214;55.880;37.542;2023-08-24T00:13:01;6.05;;;1.83;;
70951;SDS011;69214;55.880;37.542;2023-08-24T00:15:28;5.00;;;1.70;;
70951;SDS011;69214;55.880;37.542;2023-08-24T00:17:55;5.47;;;1.10;;
70951;SDS011;69214;55.880;37.542;2023-08-24T00:20:21;4.97;;;1.45;;
70951;SDS011;69214;55.880;37.542;2023-08-24T00:22:48;5.57;;;1.45;;
70951;SDS011;69214;55.880;37.542;2023-08-24T00:25:14;4.22;;;1.42;;
70951;SDS011;69214;55.880;37.542;2023-08-24T00:27:40;5.30;;;1.70;;
70951;SDS011;69214;55.880;37.542;2023-08-24T00:30:07;3.47;;;0.90;;
70951;SDS011;69214;55.880;37.542;2023-08-24T00:32:35;3.67;;;1.17;;
70951;SDS011;69214;55.880;37.542;2023-08-24T00:35:02;5.13;;;1.20;;
70951;SDS011;69214;55.880;37.542;2023-08-24T00:37:31;5.28;;;0.95;;
70951;SDS011;69214;55.880;37.542;2023-08-24T00:40:01;3.67;;;1.00;;
70951;SDS011;69214;55.880;37.542;2023-08-24T00:42:40;4.25;;;1.00;;
70951;SDS011;69214;55.880;37.542;2023-08-24T00:45:08;2.90;;;1.02;;
70951;SDS011;69214;55.880;37.542;2023-08-24T00:47:53;5.47;;;1.15;;
70951;SDS011;69214;55.880;37.542;2023-08-24T00:50:19;5.05;;;1.08;;
70951;SDS011;69214;55.880;37.542;2023-08-24T00:52:45;3.03;;;1.13;;
70951;SDS011;69214;55.880;37.542;2023-08-24T00:55:12;3.05;;;1.00;;
70951;SDS011;69214;55.880;37.542;2023-08-24T00:57:39;4.82;;;1.10;;
70951;SDS011;69214;55.880;37.542;2023-08-24T01:00:07;4.57;;;1.23;;
70951;SDS011;69214;55.880;37.542;2023-08-24T01:02:37;4.05;;;1.30;;
70951;SDS011;69214;55.880;37.542;2023-08-24T01:05:03;4.93;;;1.10;;
70951;SDS011;69214;55.880;37.542;2023-08-24T01:07:33;5.57;;;1.45;;
70951;SDS011;69214;55.880;37.542;2023-08-24T01:10:05;5.45;;;1.30;;
70951;SDS011;69214;55.880;37.542;2023-08-24T01:17:55;4.43;;;1.00;;
70951;SDS011;69214;55.880;37.542;2023-08-24T01:20:26;4.03;;;1.17;;
70951;SDS011;69214;55.880;37.542;2023-08-24T01:22:57;3.90;;;1.20;;
70951;SDS011;69214;55.880;37.542;2023-08-24T01:25:38;3.58;;;1.30;;
70951;SDS011;69214;55.880;37.542;2023-08-24T01:28:11;5.18;;;1.20;;
70951;SDS011;69214;55.880;37.542;2023-08-24T01:30:38;4.67;;;1.50;;
70951;SDS011;69214;55.880;37.542;2023-08-24T01:33:04;6.18;;;1.27;;
70951;SDS011;69214;55.880;37.542;2023-08-24T01:35:30;4.00;;;1.10;;
70951;SDS011;69214;55.880;37.542;2023-08-24T01:38:00;4.45;;;1.40;;
70951;SDS011;69214;55.880;37.542;2023-08-24T01:40:45;4.50;;;1.13;;
70951;SDS011;69214;55.880;37.542;2023-08-24T01:43:20;6.75;;;1.17;;
70951;SDS011;69214;55.880;37.542;2023-08-24T01:45:48;4.97;;;1.10;;
70951;SDS011;69214;55.880;37.542;2023-08-24T01:48:19;4.22;;;1.25;;
70951;SDS011;69214;55.880;37.542;2023-08-24T01:50:45;3.88;;;1.25;;
70951;SDS011;69214;55.880;37.542;2023-08-24T01:53:11;3.77;;;1.03;;
70951;SDS011;69214;55.880;37.542;2023-08-24T01:55:39;2.47;;;0.80;;
70951;SDS011;69214;55.880;37.542;2023-08-24T01:58:05;4.22;;;1.23;;
70951;SDS011;69214;55.880;37.542;2023-08-24T02:00:31;3.80;;;1.20;;
70951;SDS011;69214;55.880;37.542;2023-08-24T02:02:57;5.50;;;1.10;;
70951;SDS011;69214;55.880;37.542;2023-08-24T02:05:24;5.13;;;1.00;;
70951;SDS011;69214;55.880;37.542;2023-08-24T02:07:53;4.93;;;1.20;;
70951;SDS011;69214;55.880;37.542;2023-08-24T02:10:19;5.22;;;1.20;;
70951;SDS011;69214;55.880;37.542;2023-08-24T02:12:45;3.73;;;1.03;;
70951;SDS011;69214;55.880;37.542;2023-08-24T02:15:11;4.38;;;1.20;;
70951;SDS011;69214;55.880;37.542;2023-08-24T02:17:37;3.22;;;1.10;;
70951;SDS011;69214;55.880;37.542;2023-08-24T02:20:05;4.60;;;1.27;;
70951;SDS011;69214;55.880;37.542;2023-08-24T02:22:35;6.77;;;1.07;;
70951;SDS011;69214;55.880;37.542;2023-08-24T02:25:01;6.53;;;2.03;;
70951;SDS011;69214;55.880;37.542;2023-08-24T02:27:31;4.88;;;1.38;;
70951;SDS011;69214;55.880;37.542;2023-08-24T02:29:57;4.43;;;1.27;;
70951;SDS011;69214;55.880;37.542;2023-08-24T02:32:25;4.07;;;1.08;;
70951;SDS011;69214;55.880;37.542;2023-08-24T02:34:51;4.77;;;0.97;;
70951;SDS011;69214;55.880;37.542;2023-08-24T02:37:17;5.45;;;1.33;;
70951;SDS011;69214;55.880;37.542;2023-08-24T02:39:43;3.50;;;1.00;;
70951;SDS011;69214;55.880;37.542;2023-08-24T02:42:09;4.20;;;0.82;;
70951;SDS011;69214;55.880;37.542;2023-08-24T02:44:35;7.30;;;1.17;;
70951;SDS011;69214;55.880;37.542;2023-08-24T02:47:02;3.53;;;1.05;;
70951;SDS011;69214;55.880;37.542;2023-08-24T02:49:29;5.13;;;1.42;;
70951;SDS011;69214;55.880;37.542;2023-08-24T02:51:55;4.25;;;0.93;;
70951;SDS011;69214;55.880;37.542;2023-08-24T02:54:21;4.57;;;1.10;;
70951;SDS011;69214;55.880;37.542;2023-08-24T02:56:48;3.85;;;1.00;;
70951;SDS011;69214;55.880;37.542;2023-08-24T02:59:14;3.70;;;1.25;;
70951;SDS011;69214;55.880;37.542;2023-08-24T03:01:40;5.60;;;1.40;;
70951;SDS011;69214;55.880;37.542;2023-08-24T03:04:07;4.90;;;1.50;;
70951;SDS011;69214;55.880;37.542;2023-08-24T03:06:33;3.97;;;1.20;;
70951;SDS011;69214;55.880;37.542;2023-08-24T03:09:00;4.10;;;1.30;;
70951;SDS011;69214;55.880;37.542;2023-08-24T03:11:29;7.75;;;1.55;;
70951;SDS011;69214;55.880;37.542;2023-08-24T03:13:55;5.30;;;1.30;;
70951;SDS011;69214;55.880;37.542;2023-08-24T03:16:21;3.93;;;1.43;;
70951;SDS011;69214;55.880;37.542;2023-08-24T03:18:47;5.55;;;1.35;;
70951;SDS011;69214;55.880;37.542;2023-08-24T03:21:13;5.07;;;1.63;;
70951;SDS011;69214;55.880;37.542;2023-08-24T03:23:40;4.25;;;1.75;;
70951;SDS011;69214;55.880;37.542;2023-08-24T03:26:06;7.40;;;1.63;;
70951;SDS011;69214;55.880;37.542;2023-08-24T03:28:32;7.57;;;1.90;;
70951;SDS011;69214;55.880;37.542;2023-08-24T03:31:00;4.22;;;1.45;;
70951;SDS011;69214;55.880;37.542;2023-08-24T03:33:27;3.83;;;1.30;;
70951;SDS011;69214;55.880;37.542;2023-08-24T03:35:54;5.45;;;1.88;;
70951;SDS011;69214;55.880;37.542;2023-08-24T03:38:20;6.97;;;2.22;;
70951;SDS011;69214;55.880;37.542;2023-08-24T03:40:46;5.93;;;1.53;;
70951;SDS011;69214;55.880;37.542;2023-08-24T03:43:12;5.57;;;2.15;;
70951;SDS011;69214;55.880;37.542;2023-08-24T03:45:39;6.22;;;2.15;;
70951;SDS011;69214;55.880;37.542;2023-08-24T03:48:07;5.28;;;1.90;;
70951;SDS011;69214;55.880;37.542;2023-08-24T03:50:33;7.03;;;2.00;;
70951;SDS011;69214;55.880;37.542;2023-08-24T03:52:58;6.20;;;1.75;;
70951;SDS011;69214;55.880;37.542;2023-08-24T03:55:24;4.82;;;1.70;;
70951;SDS011;69214;55.880;37.542;2023-08-24T03:57:51;6.07;;;1.60;;
70951;SDS011;69214;55.880;37.542;2023-08-24T04:00:17;4.90;;;1.50;;
70951;SDS011;69214;55.880;37.542;2023-08-24T04:02:43;5.07;;;1.60;;
70951;SDS011;69214;55.880;37.542;2023-08-24T04:05:17;5.43;;;2.08;;
70951;SDS011;69214;55.880;37.542;2023-08-24T04:07:43;5.47;;;1.77;;
70951;SDS011;69214;55.880;37.542;2023-08-24T04:10:11;5.72;;;1.95;;
70951;SDS011;69214;55.880;37.542;2023-08-24T04:12:37;6.10;;;1.90;;
70951;SDS011;69214;55.880;37.542;2023-08-24T04:15:04;5.78;;;1.85;;
70951;SDS011;69214;55.880;37.542;2023-08-24T04:17:33;4.60;;;1.70;;
70951;SDS011;69214;55.880;37.542;2023-08-24T04:20:00;5.07;;;1.88;;
70951;SDS011;69214;55.880;37.542;2023-08-24T04:22:28;5.80;;;1.67;;
70951;SDS011;69214;55.880;37.542;2023-08-24T04:24:54;5.20;;;1.83;;
70951;SDS011;69214;55.880;37.542;2023-08-24T04:27:19;6.18;;;1.80;;
70951;SDS011;69214;55.880;37.542;2023-08-24T04:29:47;6.57;;;1.70;;
70951;SDS011;69214;55.880;37.542;2023-08-24T04:32:13;5.67;;;2.07;;
70951;SDS011;69214;55.880;37.542;2023-08-24T04:34:39;8.33;;;2.67;;
70951;SDS011;69214;55.880;37.542;2023-08-24T04:37:05;8.68;;;2.20;;
70951;SDS011;69214;55.880;37.542;2023-08-24T04:39:34;5.22;;;1.52;;
70951;SDS011;69214;55.880;37.542;2023-08-24T04:42:00;6.45;;;1.90;;
70951;SDS011;69214;55.880;37.542;2023-08-24T04:44:27;6.20;;;2.03;;
70951;SDS011;69214;55.880;37.542;2023-08-24T04:46:53;7.75;;;2.65;;
70951;SDS011;69214;55.880;37.542;2023-08-24T04:49:19;7.03;;;2.50;;
70951;SDS011;69214;55.880;37.542;2023-08-24T04:51:45;5.20;;;1.93;;
70951;SDS011;69214;55.880;37.542;2023-08-24T04:54:11;5.88;;;2.03;;
70951;SDS011;69214;55.880;37.542;2023-08-24T04:56:37;5.57;;;1.95;;
70951;SDS011;69214;55.880;37.542;2023-08-24T04:59:02;6.93;;;1.70;;
70951;SDS011;69214;55.880;37.542;2023-08-24T05:01:28;6.63;;;2.08;;
70951;SDS011;69214;55.880;37.542;2023-08-24T05:03:58;6.57;;;2.00;;
70951;SDS011;69214;55.880;37.542;2023-08-24T05:06:24;6.68;;;1.80;;
70951;SDS011;69214;55.880;37.542;2023-08-24T05:08:50;5.73;;;2.07;;
70951;SDS011;69214;55.880;37.542;2023-08-24T05:11:17;6.80;;;2.40;;
70951;SDS011;69214;55.880;37.542;2023-08-24T05:13:44;7.22;;;2.17;;
70951;SDS011;69214;55.880;37.542;2023-08-24T05:16:10;6.75;;;2.70;;
70951;SDS011;69214;55.880;37.542;2023-08-24T05:18:37;6.40;;;2.35;;
70951;SDS011;69214;55.880;37.542;2023-08-24T05:21:03;7.60;;;2.27;;
70951;SDS011;69214;55.880;37.542;2023-08-24T05:23:30;8.10;;;2.08;;
70951;SDS011;69214;55.880;37.542;2023-08-24T05:25:57;7.13;;;1.77;;
70951;SDS011;69214;55.880;37.542;2023-08-24T05:28:26;7.40;;;2.33;;
70951;SDS011;69214;55.880;37.542;2023-08-24T05:30:53;9.18;;;2.17;;
70951;SDS011;69214;55.880;37.542;2023-08-24T05:33:20;7.67;;;2.00;;
70951;SDS011;69214;55.880;37.542;2023-08-24T05:35:47;6.05;;;1.50;;
70951;SDS011;69214;55.880;37.542;2023-08-24T05:38:13;6.78;;;1.88;;
70951;SDS011;69214;55.880;37.542;2023-08-24T05:40:40;5.75;;;1.83;;
70951;SDS011;69214;55.880;37.542;2023-08-24T05:43:11;4.97;;;1.80;;
70951;SDS011;69214;55.880;37.542;2023-08-24T05:45:36;5.80;;;1.80;;
70951;SDS011;69214;55.880;37.542;2023-08-24T05:48:04;6.90;;;1.67;;
70951;SDS011;69214;55.880;37.542;2023-08-24T05:50:31;5.18;;;1.63;;
70951;SDS011;69214;55.880;37.542;2023-08-24T05:52:57;5.65;;;1.75;;
70951;SDS011;69214;55.880;37.542;2023-08-24T05:55:24;5.53;;;1.80;;
70951;SDS011;69214;55.880;37.542;2023-08-24T05:57:49;5.35;;;2.10;;
70951;SDS011;69214;55.880;37.542;2023-08-24T06:00:15;6.30;;;1.80;;
70951;SDS011;69214;55.880;37.542;2023-08-24T06:02:42;3.93;;;1.23;;
70951;SDS011;69214;55.880;37.542;2023-08-24T06:05:08;4.00;;;1.15;;
70951;SDS011;69214;55.880;37.542;2023-08-24T06:07:35;5.10;;;1.50;;
70951;SDS011;69214;55.880;37.542;2023-08-24T06:10:01;5.53;;;1.92;;
70951;SDS011;69214;55.880;37.542;2023-08-24T06:12:33;5.72;;;2.00;;
70951;SDS011;69214;55.880;37.542;2023-08-24T06:14:59;5.70;;;1.80;;
70951;SDS011;69214;55.880;37.542;2023-08-24T06:17:32;4.65;;;1.60;;
70951;SDS011;69214;55.880;37.542;2023-08-24T06:20:02;5.22;;;1.20;;
70951;SDS011;69214;55.880;37.542;2023-08-24T06:22:33;5.07;;;1.55;;
70951;SDS011;69214;55.880;37.542;2023-08-24T06:24:58;4.20;;;1.60;;
70951;SDS011;69214;55.880;37.542;2023-08-24T06:27:26;3.92;;;1.42;;
70951;SDS011;69214;55.880;37.542;2023-08-24T06:29:53;6.07;;;1.65;;
70951;SDS011;69214;55.880;37.542;2023-08-24T06:32:19;3.65;;;1.40;;
70951;SDS011;69214;55.880;37.542;2023-08-24T06:34:45;3.67;;;1.20;;
70951;SDS011;69214;55.880;37.542;2023-08-24T06:37:11;3.97;;;1.20;;
70951;SDS011;69214;55.880;37.542;2023-08-24T06:39:37;3.72;;;1.05;;
70951;SDS011;69214;55.880;37.542;2023-08-24T06:42:04;4.53;;;1.15;;
70951;SDS011;69214;55.880;37.542;2023-08-24T06:44:31;4.00;;;1.30;;
70951;SDS011;69214;55.880;37.542;2023-08-24T06:46:58;3.25;;;0.98;;
70951;SDS011;69214;55.880;37.542;2023-08-24T06:49:25;3.17;;;1.00;;
70951;SDS011;69214;55.880;37.542;2023-08-24T06:51:51;4.28;;;1.50;;
70951;SDS011;69214;55.880;37.542;2023-08-24T06:54:17;6.32;;;1.30;;
70951;SDS011;69214;55.880;37.542;2023-08-24T06:56:44;4.07;;;1.20;;
70951;SDS011;69214;55.880;37.542;2023-08-24T06:59:10;4.33;;;1.20;;
70951;SDS011;69214;55.880;37.542;2023-08-24T07:01:39;4.45;;;0.90;;
70951;SDS011;69214;55.880;37.542;2023-08-24T07:04:06;5.00;;;1.40;;
70951;SDS011;69214;55.880;37.542;2023-08-24T07:06:33;3.58;;;1.10;;
70951;SDS011;69214;55.880;37.542;2023-08-24T07:09:02;4.50;;;1.10;;
70951;SDS011;69214;55.880;37.542;2023-08-24T07:11:32;2.37;;;0.80;;
70951;SDS011;69214;55.880;37.542;2023-08-24T07:13:58;3.63;;;0.90;;
70951;SDS011;69214;55.880;37.542;2023-08-24T07:16:24;2.83;;;0.80;;
70951;SDS011;69214;55.880;37.542;2023-08-24T07:18:50;2.67;;;0.95;;
70951;SDS011;69214;55.880;37.542;2023-08-24T07:21:16;4.37;;;0.93;;
70951;SDS011;69214;55.880;37.542;2023-08-24T07:23:43;2.80;;;0.88;;
70951;SDS011;69214;55.880;37.542;2023-08-24T07:26:09;4.65;;;1.00;;
70951;SDS011;69214;55.880;37.542;2023-08-24T07:28:35;3.08;;;0.98;;
70951;SDS011;69214;55.880;37.542;2023-08-24T07:31:08;3.30;;;0.90;;
70951;SDS011;69214;55.880;37.542;2023-08-24T07:33:36;2.05;;;0.57;;
70951;SDS011;69214;55.880;37.542;2023-08-24T07:36:06;3.65;;;0.90;;
70951;SDS011;69214;55.880;37.542;2023-08-24T07:38:32;2.63;;;0.88;;
70951;SDS011;69214;55.880;37.542;2023-08-24T07:40:58;4.47;;;0.90;;
70951;SDS011;69214;55.880;37.542;2023-08-24T07:43:24;2.80;;;0.80;;
70951;SDS011;69214;55.880;37.542;2023-08-24T07:45:51;2.70;;;0.90;;
70951;SDS011;69214;55.880;37.542;2023-08-24T07:48:20;7.30;;;1.02;;
70951;SDS011;69214;55.880;37.542;2023-08-24T07:50:46;2.88;;;0.65;;
70951;SDS011;69214;55.880;37.542;2023-08-24T07:53:11;3.87;;;1.00;;
70951;SDS011;69214;55.880;37.542;2023-08-24T07:55:37;3.95;;;0.90;;
70951;SDS011;69214;55.880;37.542;2023-08-24T07:58:03;2.57;;;0.67;;
70951;SDS011;69214;55.880;37.542;2023-08-24T08:00:29;3.90;;;1.10;;
70951;SDS011;69214;55.880;37.542;2023-08-24T08:02:55;3.97;;;1.05;;
70951;SDS011;69214;55.880;37.542;2023-08-24T08:05:21;2.83;;;0.90;;
70951;SDS011;69214;55.880;37.542;2023-08-24T08:07:48;7.70;;;0.98;;
70951;SDS011;69214;55.880;37.542;2023-08-24T08:10:14;3.33;;;1.07;;
70951;SDS011;69214;55.880;37.542;2023-08-24T08:12:44;2.58;;;0.85;;
70951;SDS011;69214;55.880;37.542;2023-08-24T08:15:11;3.08;;;1.02;;
70951;SDS011;69214;55.880;37.542;2023-08-24T08:17:37;4.03;;;0.80;;
70951;SDS011;69214;55.880;37.542;2023-08-24T08:20:03;2.93;;;1.00;;
70951;SDS011;69214;55.880;37.542;2023-08-24T08:22:32;2.83;;;0.93;;
70951;SDS011;69214;55.880;37.542;2023-08-24T08:25:05;3.60;;;1.10;;
70951;SDS011;69214;55.880;37.542;2023-08-24T08:27:32;3.58;;;1.00;;
70951;SDS011;69214;55.880;37.542;2023-08-24T08:30:01;2.33;;;0.82;;
70951;SDS011;69214;55.880;37.542;2023-08-24T08:32:32;3.30;;;1.00;;
70951;SDS011;69214;55.880;37.542;2023-08-24T08:34:58;3.72;;;1.27;;
70951;SDS011;69214;55.880;37.542;2023-08-24T08:37:25;5.07;;;1.40;;
70951;SDS011;69214;55.880;37.542;2023-08-24T08:39:52;2.97;;;0.80;;
70951;SDS011;69214;55.880;37.542;2023-08-24T08:42:19;3.90;;;1.30;;
70951;SDS011;69214;55.880;37.542;2023-08-24T08:44:46;4.00;;;1.07;;
70951;SDS011;69214;55.880;37.542;2023-08-24T08:47:12;5.05;;;1.40;;
70951;SDS011;69214;55.880;37.542;2023-08-24T08:49:41;3.65;;;1.17;;
70951;SDS011;69214;55.880;37.542;2023-08-24T08:52:09;4.57;;;1.50;;
70951;SDS011;69214;55.880;37.542;2023-08-24T08:54:35;4.18;;;1.30;;
70951;SDS011;69214;55.880;37.542;2023-08-24T08:57:04;3.73;;;0.80;;
70951;SDS011;69214;55.880;37.542;2023-08-24T08:59:30;3.53;;;1.00;;
70951;SDS011;69214;55.880;37.542;2023-08-24T09:01:58;4.53;;;1.30;;
70951;SDS011;69214;55.880;37.542;2023-08-24T09:04:31;4.60;;;1.20;;
70951;SDS011;69214;55.880;37.542;2023-08-24T09:06:59;4.60;;;1.30;;
70951;SDS011;69214;55.880;37.542;2023-08-24T09:09:29;5.27;;;1.30;;
70951;SDS011;69214;55.880;37.542;2023-08-24T09:11:55;2.75;;;0.88;;
70951;SDS011;69214;55.880;37.542;2023-08-24T09:14:22;5.60;;;1.20;;
70951;SDS011;69214;55.880;37.542;2023-08-24T09:16:49;2.92;;;0.90;;
70951;SDS011;69214;55.880;37.542;2023-08-24T09:19:18;2.93;;;0.80;;
70951;SDS011;69214;55.880;37.542;2023-08-24T09:21:44;2.85;;;0.80;;
70951;SDS011;69214;55.880;37.542;2023-08-24T09:24:10;4.05;;;0.60;;
70951;SDS011;69214;55.880;37.542;2023-08-24T09:26:37;2.20;;;0.70;;
70951;SDS011;69214;55.880;37.542;2023-08-24T09:29:12;3.73;;;0.90;;
70951;SDS011;69214;55.880;37.542;2023-08-24T09:31:40;3.50;;;1.00;;
70951;SDS011;69214;55.880;37.542;2023-08-24T09:34:09;3.42;;;0.90;;
70951;SDS011;69214;55.880;37.542;2023-08-24T09:36:36;2.90;;;0.70;;
70951;SDS011;69214;55.880;37.542;2023-08-24T09:39:03;3.78;;;0.60;;
70951;SDS011;69214;55.880;37.542;2023-08-24T09:41:37;3.70;;;0.60;;
70951;SDS011;69214;55.880;37.542;2023-08-24T09:44:06;1.85;;;0.50;;
70951;SDS011;69214;55.880;37.542;2023-08-24T09:46:34;2.33;;;0.70;;
70951;SDS011;69214;55.880;37.542;2023-08-24T09:49:06;2.55;;;0.73;;
70951;SDS011;69214;55.880;37.542;2023-08-24T09:51:34;2.60;;;0.73;;
70951;SDS011;69214;55.880;37.542;2023-08-24T09:54:02;2.93;;;0.77;;
70951;SDS011;69214;55.880;37.542;2023-08-24T09:56:33;2.55;;;0.65;;
70951;SDS011;69214;55.880;37.542;2023-08-24T09:59:01;4.07;;;0.77;;
70951;SDS011;69214;55.880;37.542;2023-08-24T10:01:36;2.00;;;0.60;;
70951;SDS011;69214;55.880;37.542;2023-08-24T10:04:03;1.85;;;0.40;;
70951;SDS011;69214;55.880;37.542;2023-08-24T10:06:31;2.40;;;0.70;;
70951;SDS011;69214;55.880;37.542;2023-08-24T10:09:01;2.75;;;0.65;;
70951;SDS011;69214;55.880;37.542;2023-08-24T10:11:34;2.15;;;0.60;;
70951;SDS011;69214;55.880;37.542;2023-08-24T10:14:49;2.55;;;0.65;;
70951;SDS011;69214;55.880;37.542;2023-08-24T10:16:56;3.50;;;0.75;;
70951;SDS011;69214;55.880;37.542;2023-08-24T10:19:24;2.23;;;0.77;;
70951;SDS011;69214;55.880;37.542;2023-08-24T10:21:51;3.45;;;0.93;;
70951;SDS011;69214;55.880;37.542;2023-08-24T10:24:19;2.28;;;0.50;;
70951;SDS011;69214;55.880;37.542;2023-08-24T10:26:49;2.35;;;0.70;;
70951;SDS011;69214;55.880;37.542;2023-08-24T10:29:16;2.22;;;0.60;;
70951;SDS011;69214;55.880;37.542;2023-08-24T10:31:43;3.33;;;0.80;;
70951;SDS011;69214;55.880;37.542;2023-08-24T10:34:09;2.78;;;1.00;;
70951;SDS011;69214;55.880;37.542;2023-08-24T10:36:39;2.63;;;0.90;;
70951;SDS011;69214;55.880;37.542;2023-08-24T10:39:06;2.65;;;0.90;;
70951;SDS011;69214;55.880;37.542;2023-08-24T10:41:48;2.38;;;0.75;;
70951;SDS011;69214;55.880;37.542;2023-08-24T10:44:19;1.90;;;0.60;;
70951;SDS011;69214;55.880;37.542;2023-08-24T10:52:23;2.97;;;0.50;;
70951;SDS011;69214;55.880;37.542;2023-08-24T10:55:02;1.45;;;0.47;;
70951;SDS011;69214;55.880;37.542;2023-08-24T10:57:36;2.23;;;0.60;;
70951;SDS011;69214;55.880;37.542;2023-08-24T11:00:09;1.42;;;0.45;;
70951;SDS011;69214;55.880;37.542;2023-08-24T11:02:48;1.90;;;0.50;;
70951;SDS011;69214;55.880;37.542;2023-08-24T11:08:00;2.47;;;0.55;;
70951;SDS011;69214;55.880;37.542;2023-08-24T11:10:31;1.87;;;0.60;;
70951;SDS011;69214;55.880;37.542;2023-08-24T11:15:36;1.80;;;0.50;;
70951;SDS011;69214;55.880;37.542;2023-08-24T11:21:10;2.72;;;0.60;;
70951;SDS011;69214;55.880;37.542;2023-08-24T11:23:37;2.30;;;0.70;;
70951;SDS011;69214;55.880;37.542;2023-08-24T11:26:03;3.58;;;0.85;;
70951;SDS011;69214;55.880;37.542;2023-08-24T11:28:29;3.13;;;0.60;;
70951;SDS011;69214;55.880;37.542;2023-08-24T11:30:57;1.63;;;0.50;;
70951;SDS011;69214;55.880;37.542;2023-08-24T11:33:33;1.70;;;0.37;;
70951;SDS011;69214;55.880;37.542;2023-08-24T11:36:02;2.17;;;0.40;;
70951;SDS011;69214;55.880;37.542;2023-08-24T11:38:38;1.73;;;0.40;;
70951;SDS011;69214;55.880;37.542;2023-08-24T11:41:12;2.00;;;0.60;;
70951;SDS011;69214;55.880;37.542;2023-08-24T11:43:45;1.20;;;0.40;;
70951;SDS011;69214;55.880;37.542;2023-08-24T11:46:14;2.20;;;0.70;;
70951;SDS011;69214;55.880;37.542;2023-08-24T11:48:41;2.00;;;0.50;;
70951;SDS011;69214;55.880;37.542;2023-08-24T11:51:11;1.98;;;0.43;;
70951;SDS011;69214;55.880;37.542;2023-08-24T11:53:43;1.95;;;0.50;;
70951;SDS011;69214;55.880;37.542;2023-08-24T11:56:13;1.40;;;0.38;;
70951;SDS011;69214;55.880;37.542;2023-08-24T11:58:41;1.83;;;0.40;;
70951;SDS011;69214;55.880;37.542;2023-08-24T12:01:09;1.80;;;0.45;;
70951;SDS011;69214;55.880;37.542;2023-08-24T12:03:39;2.22;;;0.40;;
70951;SDS011;69214;55.880;37.542;2023-08-24T12:06:13;2.22;;;0.45;;
70951;SDS011;69214;55.880;37.542;2023-08-24T12:08:40;1.65;;;0.40;;
70951;SDS011;69214;55.880;37.542;2023-08-24T12:11:15;2.60;;;0.27;;
70951;SDS011;69214;55.880;37.542;2023-08-24T12:13:43;1.10;;;0.30;;
70951;SDS011;69214;55.880;37.542;2023-08-24T12:16:17;2.25;;;0.40;;
70951;SDS011;69214;55.880;37.542;2023-08-24T12:18:51;1.90;;;0.38;;
70951;SDS011;69214;55.880;37.542;2023-08-24T12:21:22;2.17;;;0.40;;
70951;SDS011;69214;55.880;37.542;2023-08-24T12:23:56;1.90;;;0.47;;
70951;SDS011;69214;55.880;37.542;2023-08-24T12:26:28;0.93;;;0.30;;
70951;SDS011;69214;55.880;37.542;2023-08-24T12:29:16;2.17;;;0.40;;
70951;SDS011;69214;55.880;37.542;2023-08-24T12:31:43;1.58;;;0.38;;
70951;SDS011;69214;55.880;37.542;2023-08-24T12:34:09;1.83;;;0.43;;
70951;SDS011;69214;55.880;37.542;2023-08-24T12:36:37;1.30;;;0.33;;
70951;SDS011;69214;55.880;37.542;2023-08-24T12:39:04;1.25;;;0.25;;
70951;SDS011;69214;55.880;37.542;2023-08-24T12:41:31;2.30;;;0.57;;
70951;SDS011;69214;55.880;37.542;2023-08-24T12:43:57;1.30;;;0.30;;
70951;SDS011;69214;55.880;37.542;2023-08-24T12:46:23;2.00;;;0.40;;
70951;SDS011;69214;55.880;37.542;2023-08-24T12:48:49;3.08;;;0.40;;
70951;SDS011;69214;55.880;37.542;2023-08-24T12:51:15;1.27;;;0.32;;
70951;SDS011;69214;55.880;37.542;2023-08-24T12:53:42;2.17;;;0.50;;
70951;SDS011;69214;55.880;37.542;2023-08-24T12:56:08;4.57;;;0.65;;
70951;SDS011;69214;55.880;37.542;2023-08-24T12:58:33;1.53;;;0.40;;
70951;SDS011;69214;55.880;37.542;2023-08-24T13:01:00;1.95;;;0.30;;
70951;SDS011;69214;55.880;37.542;2023-08-24T13:03:26;1.50;;;0.40;;
70951;SDS011;69214;55.880;37.542;2023-08-24T13:05:52;1.57;;;0.50;;
70951;SDS011;69214;55.880;37.542;2023-08-24T13:08:18;2.00;;;0.40;;
70951;SDS011;69214;55.880;37.542;2023-08-24T13:10:44;2.30;;;0.50;;
70951;SDS011;69214;55.880;37.542;2023-08-24T13:13:10;1.30;;;0.40;;
70951;SDS011;69214;55.880;37.542;2023-08-24T13:15:35;1.30;;;0.30;;
70951;SDS011;69214;55.880;37.542;2023-08-24T13:18:01;2.55;;;0.35;;
70951;SDS011;69214;55.880;37.542;2023-08-24T13:20:27;1.25;;;0.30;;
70951;SDS011;69214;55.880;37.542;2023-08-24T13:22:53;3.23;;;0.40;;
70951;SDS011;69214;55.880;37.542;2023-08-24T13:25:19;1.75;;;0.40;;
70951;SDS011;69214;55.880;37.542;2023-08-24T13:27:46;4.85;;;0.40;;
70951;SDS011;69214;55.880;37.542;2023-08-24T13:30:12;1.58;;;0.35;;
70951;SDS011;69214;55.880;37.542;2023-08-24T13:32:40;2.63;;;0.30;;
70951;SDS011;69214;55.880;37.542;2023-08-24T13:35:06;2.08;;;0.30;;
70951;SDS011;69214;55.880;37.542;2023-08-24T13:37:34;1.88;;;0.45;;
70951;SDS011;69214;55.880;37.542;2023-08-24T13:40:00;1.20;;;0.40;;
70951;SDS011;69214;55.880;37.542;2023-08-24T13:42:28;1.48;;;0.38;;
70951;SDS011;69214;55.880;37.542;2023-08-24T13:44:54;2.20;;;0.40;;
70951;SDS011;69214;55.880;37.542;2023-08-24T13:47:20;1.95;;;0.30;;
70951;SDS011;69214;55.880;37.542;2023-08-24T13:49:47;1.23;;;0.30;;
70951;SDS011;69214;55.880;37.542;2023-08-24T13:52:13;2.58;;;0.22;;
70951;SDS011;69214;55.880;37.542;2023-08-24T13:54:41;4.32;;;0.45;;
70951;SDS011;69214;55.880;37.542;2023-08-24T13:57:08;1.55;;;0.40;;
70951;SDS011;69214;55.880;37.542;2023-08-24T13:59:34;1.50;;;0.50;;
70951;SDS011;69214;55.880;37.542;2023-08-24T14:02:01;3.50;;;0.57;;
70951;SDS011;69214;55.880;37.542;2023-08-24T14:04:27;3.30;;;0.40;;
70951;SDS011;69214;55.880;37.542;2023-08-24T14:06:53;3.55;;;0.40;;
70951;SDS011;69214;55.880;37.542;2023-08-24T14:09:18;1.73;;;0.50;;
70951;SDS011;69214;55.880;37.542;2023-08-24T14:11:45;2.55;;;0.40;;
70951;SDS011;69214;55.880;37.542;2023-08-24T14:14:12;3.95;;;0.30;;
70951;SDS011;69214;55.880;37.542;2023-08-24T14:16:38;1.73;;;0.38;;
70951;SDS011;69214;55.880;37.542;2023-08-24T14:19:04;2.20;;;0.50;;
70951;SDS011;69214;55.880;37.542;2023-08-24T14:21:32;2.30;;;0.70;;
70951;SDS011;69214;55.880;37.542;2023-08-24T14:23:58;1.92;;;0.40;;
70951;SDS011;69214;55.880;37.542;2023-08-24T14:26:24;0.98;;;0.30;;
70951;SDS011;69214;55.880;37.542;2023-08-24T14:28:56;1.40;;;0.40;;
70951;SDS011;69214;55.880;37.542;2023-08-24T14:31:24;1.38;;;0.40;;
70951;SDS011;69214;55.880;37.542;2023-08-24T14:33:52;1.10;;;0.30;;
70951;SDS011;69214;55.880;37.542;2023-08-24T14:36:19;1.08;;;0.30;;
70951;SDS011;69214;55.880;37.542;2023-08-24T14:38:46;2.67;;;0.40;;
70951;SDS011;69214;55.880;37.542;2023-08-24T14:41:13;1.08;;;0.30;;
70951;SDS011;69214;55.880;37.542;2023-08-24T14:43:42;2.35;;;0.40;;
70951;SDS011;69214;55.880;37.542;2023-08-24T14:46:08;1.85;;;0.40;;
70951;SDS011;69214;55.880;37.542;2023-08-24T14:48:35;0.98;;;0.20;;
70951;SDS011;69214;55.880;37.542;2023-08-24T14:51:01;3.53;;;0.40;;
70951;SDS011;69214;55.880;37.542;2023-08-24T14:53:28;1.13;;;0.20;;
70951;SDS011;69214;55.880;37.542;2023-08-24T14:55:57;1.52;;;0.40;;